Time;durP1;ratioP1;P1;durP2;ratioP2;P2;SDS_P1;SDS_P2;PMS_P1;PMS_P2;Temp;Humidity;BMP_temperature;BMP_pressure;BME280_temperature;BME280_humidity;BME280_pressure;Samples;Min_cycle;Max_cycle;Signal;HPM_P1;HPM_P2
2022/09/19 00:01:18;;;;;;;;;;;13.80;85.10;;;;;;5036466;28;19970;-90
2022/09/19 00:03:46;;;;;;;;;;;13.90;84.90;;;;;;5036193;28;19988;-90
2022/09/19 00:06:13;;;;;;;;;;;13.90;84.70;;;;;;5036909;28;19950;-90
2022/09/19 00:08:40;;;;;;;;;;;13.70;84.10;;;;;;5047444;28;19949;-91
2022/09/19 00:11:06;;;;;;;;;;;13.60;84.00;;;;;;5047039;28;19967;-90
2022/09/19 00:13:32;;;;;;;;;;;13.40;84.20;;;;;;5045505;28;20070;-90
2022/09/19 00:15:58;;;;;;;;;;;13.30;85.10;;;;;;5039745;28;19943;-90
2022/09/19 00:18:24;;;;;;;;;;;13.20;85.50;;;;;;5048894;28;19992;-90
2022/09/19 00:20:50;;;;;;;;;;;13.10;86.00;;;;;;5052637;28;19999;-90
2022/09/19 00:26:01;;;;;;;;;;;13.10;86.40;;;;;;5055274;28;19960;-90
2022/09/19 00:28:27;;;;;;;;;;;13.00;86.30;;;;;;5055756;28;19948;-89
2022/09/19 00:30:56;;;;;;;;;;;12.90;86.00;;;;;;5054709;28;19937;-89
2022/09/19 00:33:23;;;;;;;;;;;12.80;86.30;;;;;;5035412;28;19953;-90
2022/09/19 00:35:54;;;;;;;;;;;12.80;86.70;;;;;;5049000;28;19947;-91
2022/09/19 00:38:21;;;;;;;;;;;12.80;87.10;;;;;;5044798;28;19984;-91
2022/09/19 00:40:46;;;;;;;;;;;12.90;87.30;;;;;;5055417;28;19953;-90
2022/09/19 00:43:13;;;;;;;;;;;13.10;87.10;;;;;;5040013;28;19949;-90
2022/09/19 00:45:38;;;;;;;;;;;13.10;86.90;;;;;;5054422;28;20010;-90
2022/09/19 00:48:04;;;;;;;;;;;13.10;86.20;;;;;;5055415;28;20425;-91
2022/09/19 00:50:30;;;;;;;;;;;12.90;86.70;;;;;;5041498;28;19975;-90
2022/09/19 00:53:06;;;;;;;;;;;12.90;86.80;;;;;;5050277;28;20025;-92
2022/09/19 00:55:32;;;;;;;;;;;12.90;87.00;;;;;;5044351;28;19951;-91
2022/09/19 00:58:05;;;;;;;;;;;12.90;87.20;;;;;;5054842;28;19953;-91
2022/09/19 01:00:34;;;;;;;;;;;12.90;87.10;;;;;;5046937;28;19968;-89
2022/09/19 01:03:00;;;;;;;;;;;13.00;86.90;;;;;;5046827;28;19950;-90
2022/09/19 01:05:35;;;;;;;;;;;13.00;86.70;;;;;;5052240;28;19995;-91
2022/09/19 01:08:09;;;;;;;;;;;13.00;86.70;;;;;;5050921;28;19954;-91
2022/09/19 01:10:37;;;;;;;;;;;13.00;86.60;;;;;;5042820;28;20062;-90
2022/09/19 01:13:16;;;;;;;;;;;13.10;86.30;;;;;;5051670;28;19945;-90
2022/09/19 01:15:51;;;;;;;;;;;13.10;86.00;;;;;;5042854;28;19970;-90
2022/09/19 01:18:21;;;;;;;;;;;12.90;85.50;;;;;;5035140;28;19942;-90
2022/09/19 01:24:31;;;;;;;;;;;12.90;85.70;;;;;;4993068;28;20302;-91
2022/09/19 01:27:05;;;;;;;;;;;12.80;86.10;;;;;;4992106;28;19949;-90
2022/09/19 01:29:36;;;;;;;;;;;12.70;86.30;;;;;;5027205;28;19953;-91
2022/09/19 01:32:06;;;;;;;;;;;12.60;86.60;;;;;;5052821;28;19964;-90
2022/09/19 01:34:37;;;;;;;;;;;12.60;87.00;;;;;;5050908;28;20040;-92
2022/09/19 01:37:07;;;;;;;;;;;12.50;87.30;;;;;;5049579;28;19970;-90
2022/09/19 01:39:33;;;;;;;;;;;12.50;87.70;;;;;;5048799;28;20021;-90
2022/09/19 01:41:59;;;;;;;;;;;12.70;87.40;;;;;;5044678;28;19971;-90
2022/09/19 01:44:26;;;;;;;;;;;12.80;87.00;;;;;;5037788;28;20399;-91
2022/09/19 01:47:15;;;;;;;;;;;12.70;86.60;;;;;;5049738;28;19978;-90
2022/09/19 01:49:41;;;;;;;;;;;12.60;86.40;;;;;;5051048;28;19953;-90
2022/09/19 01:52:09;;;;;;;;;;;12.50;86.90;;;;;;5037749;28;19965;-90
2022/09/19 01:54:43;;;;;;;;;;;12.50;86.80;;;;;;5040559;28;20014;-89
2022/09/19 01:57:15;;;;;;;;;;;12.60;86.60;;;;;;5052642;28;20306;-91
2022/09/19 01:59:51;;;;;;;;;;;12.60;86.20;;;;;;5054076;28;20339;-88
2022/09/19 02:02:34;;;;;;;;;;;12.60;86.10;;;;;;5045131;28;19946;-89
2022/09/19 02:05:03;;;;;;;;;;;12.50;85.90;;;;;;5043562;28;19955;-89
2022/09/19 02:07:42;;;;;;;;;;;12.40;86.00;;;;;;5041043;28;20010;-90
2022/09/19 02:10:28;;;;;;;;;;;12.40;86.30;;;;;;5052653;28;19948;-90
2022/09/19 02:12:55;;;;;;;;;;;12.30;86.20;;;;;;5051589;28;20001;-90
2022/09/19 02:15:26;;;;;;;;;;;12.40;86.40;;;;;;5053720;28;20002;-91
2022/09/19 02:17:58;;;;;;;;;;;12.40;86.10;;;;;;5044803;28;20034;-90
2022/09/19 02:20:31;;;;;;;;;;;12.50;85.90;;;;;;5033547;28;19962;-90
2022/09/19 02:23:10;;;;;;;;;;;12.50;85.60;;;;;;5044689;28;19951;-90
2022/09/19 02:25:36;;;;;;;;;;;12.40;85.50;;;;;;5034528;28;19999;-90
2022/09/19 02:28:07;;;;;;;;;;;12.30;85.30;;;;;;5052994;28;19956;-89
2022/09/19 02:30:32;;;;;;;;;;;12.10;85.50;;;;;;5035518;28;19950;-90
2022/09/19 02:32:59;;;;;;;;;;;12.00;86.10;;;;;;5048116;28;20035;-91
2022/09/19 02:35:34;;;;;;;;;;;11.90;86.60;;;;;;5037728;28;19985;-89
2022/09/19 02:38:06;;;;;;;;;;;11.80;87.00;;;;;;5040182;28;19959;-90
2022/09/19 02:40:31;;;;;;;;;;;11.80;87.30;;;;;;5039430;28;20426;-90
2022/09/19 02:43:03;;;;;;;;;;;11.80;87.30;;;;;;5053274;28;19948;-90
2022/09/19 02:45:34;;;;;;;;;;;11.80;87.30;;;;;;5053093;28;20393;-89
2022/09/19 02:48:01;;;;;;;;;;;11.90;87.10;;;;;;5052567;28;20006;-91
2022/09/19 02:50:36;;;;;;;;;;;11.90;86.80;;;;;;5049162;28;19946;-90
2022/09/19 02:53:03;;;;;;;;;;;11.90;86.80;;;;;;5050435;28;20043;-89
2022/09/19 02:55:32;;;;;;;;;;;11.90;87.00;;;;;;5035125;28;19939;-92
2022/09/19 02:57:59;;;;;;;;;;;11.90;86.80;;;;;;5057178;28;20420;-90
2022/09/19 03:00:25;;;;;;;;;;;11.80;86.90;;;;;;5055894;28;19980;-90
2022/09/19 03:02:57;;;;;;;;;;;11.70;86.90;;;;;;5056436;28;20331;-90
2022/09/19 03:05:25;;;;;;;;;;;11.60;87.00;;;;;;5038287;28;19948;-90
2022/09/19 03:08:03;;;;;;;;;;;11.60;87.30;;;;;;5049042;28;19950;-91
2022/09/19 03:10:33;;;;;;;;;;;11.60;87.50;;;;;;5039718;28;19946;-89
2022/09/19 03:13:01;;;;;;;;;;;11.70;87.60;;;;;;5056618;28;19945;-90
2022/09/19 03:15:47;;;;;;;;;;;11.70;87.50;;;;;;5046763;28;20416;-89
2022/09/19 03:18:15;;;;;;;;;;;11.70;87.50;;;;;;5037001;28;19964;-90
2022/09/19 03:20:45;;;;;;;;;;;11.80;87.30;;;;;;5038386;28;19961;-90
2022/09/19 03:23:11;;;;;;;;;;;11.90;87.00;;;;;;5051999;28;19941;-90
2022/09/19 03:25:37;;;;;;;;;;;11.90;86.60;;;;;;5040495;28;19943;-90
2022/09/19 03:28:02;;;;;;;;;;;11.90;86.60;;;;;;5047828;28;20399;-90
2022/09/19 03:30:28;;;;;;;;;;;11.90;86.70;;;;;;5056772;28;19939;-90
2022/09/19 03:32:53;;;;;;;;;;;11.80;86.50;;;;;;5056835;28;19968;-90
2022/09/19 03:35:20;;;;;;;;;;;11.70;86.80;;;;;;5056576;28;20302;-90
2022/09/19 03:37:45;;;;;;;;;;;11.60;87.20;;;;;;5056230;28;20039;-90
2022/09/19 03:40:11;;;;;;;;;;;11.70;87.30;;;;;;5056324;28;20073;-91
2022/09/19 03:42:37;;;;;;;;;;;11.70;87.20;;;;;;5042538;28;19943;-90
2022/09/19 03:45:03;;;;;;;;;;;11.60;87.20;;;;;;5056240;28;19955;-90
2022/09/19 03:47:28;;;;;;;;;;;11.70;87.40;;;;;;5045519;28;20021;-90
2022/09/19 03:49:54;;;;;;;;;;;11.80;87.20;;;;;;5050445;28;20039;-90
2022/09/19 03:52:20;;;;;;;;;;;11.80;86.90;;;;;;5055163;28;19964;-89
2022/09/19 03:54:45;;;;;;;;;;;11.90;86.50;;;;;;5039558;28;19950;-89
2022/09/19 03:57:12;;;;;;;;;;;11.90;86.00;;;;;;5055956;28;19964;-89
2022/09/19 03:59:41;;;;;;;;;;;11.90;86.20;;;;;;5056128;28;19957;-90
2022/09/19 04:02:07;;;;;;;;;;;11.90;86.20;;;;;;5038761;28;20023;-89
2022/09/19 04:04:33;;;;;;;;;;;11.90;85.60;;;;;;5054975;28;19947;-90
2022/09/19 04:07:01;;;;;;;;;;;12.10;85.10;;;;;;5055378;28;19943;-90
2022/09/19 04:09:26;;;;;;;;;;;12.00;85.00;;;;;;5053842;28;20041;-90
2022/09/19 04:11:53;;;;;;;;;;;11.60;85.40;;;;;;5053735;28;19986;-90
2022/09/19 04:14:18;;;;;;;;;;;11.40;85.40;;;;;;5056127;28;19967;-90
2022/09/19 04:16:44;;;;;;;;;;;11.10;86.30;;;;;;5051883;28;20450;-90
2022/09/19 04:19:12;;;;;;;;;;;11.10;86.80;;;;;;5040853;28;20052;-91
2022/09/19 04:21:41;;;;;;;;;;;11.10;87.10;;;;;;5061054;28;20404;-90
2022/09/19 04:24:11;;;;;;;;;;;11.10;87.50;;;;;;5049620;28;20003;-91
2022/09/19 04:26:36;;;;;;;;;;;11.10;87.60;;;;;;5037244;28;20391;-90
2022/09/19 04:29:03;;;;;;;;;;;11.10;87.60;;;;;;5055742;28;19945;-90
2022/09/19 04:31:37;;;;;;;;;;;11.10;87.70;;;;;;5045859;28;19943;-90
2022/09/19 04:34:03;;;;;;;;;;;11.00;87.70;;;;;;5034411;28;19941;-91
2022/09/19 04:36:31;;;;;;;;;;;10.90;88.00;;;;;;5040178;28;19954;-89
2022/09/19 04:39:02;;;;;;;;;;;10.90;88.20;;;;;;5038984;28;20344;-90
2022/09/19 04:41:32;;;;;;;;;;;10.90;88.30;;;;;;5048177;28;19950;-90
2022/09/19 04:43:57;;;;;;;;;;;10.90;88.50;;;;;;5041609;28;19950;-90
2022/09/19 04:46:23;;;;;;;;;;;10.80;88.50;;;;;;5046926;28;19945;-90
2022/09/19 04:48:49;;;;;;;;;;;10.90;88.60;;;;;;5051931;28;19950;-90
2022/09/19 04:51:16;;;;;;;;;;;10.90;88.70;;;;;;5045220;28;19972;-90
2022/09/19 04:53:41;;;;;;;;;;;10.90;88.70;;;;;;5055078;28;19948;-89
2022/09/19 04:56:07;;;;;;;;;;;10.80;89.00;;;;;;5051236;28;19961;-89
2022/09/19 04:58:32;;;;;;;;;;;10.80;89.00;;;;;;5035117;28;20024;-89
2022/09/19 05:00:58;;;;;;;;;;;10.70;89.00;;;;;;5044761;28;20350;-89
2022/09/19 05:03:27;;;;;;;;;;;10.80;89.10;;;;;;5054251;28;20416;-90
2022/09/19 05:05:53;;;;;;;;;;;10.90;89.00;;;;;;5049846;28;19944;-91
2022/09/19 05:08:25;;;;;;;;;;;11.00;89.10;;;;;;5045539;28;19949;-89
2022/09/19 05:10:53;;;;;;;;;;;11.10;88.70;;;;;;5054172;28;19943;-89
2022/09/19 05:13:18;;;;;;;;;;;11.20;88.10;;;;;;5048577;28;19939;-90
2022/09/19 05:15:44;;;;;;;;;;;11.30;87.80;;;;;;5049450;28;19952;-91
2022/09/19 05:18:10;;;;;;;;;;;11.50;87.30;;;;;;5037758;28;19943;-90
2022/09/19 05:20:36;;;;;;;;;;;11.70;87.00;;;;;;5054019;28;19958;-89
2022/09/19 05:23:02;;;;;;;;;;;11.90;86.00;;;;;;5048269;28;19955;-90
2022/09/19 05:25:28;;;;;;;;;;;11.90;85.50;;;;;;5045198;28;20346;-88
2022/09/19 05:27:57;;;;;;;;;;;11.90;85.10;;;;;;5043172;28;19946;-89
2022/09/19 05:30:24;;;;;;;;;;;12.00;85.10;;;;;;5047947;28;20399;-90
2022/09/19 05:32:50;;;;;;;;;;;11.90;84.90;;;;;;5043445;28;19980;-89
2022/09/19 05:35:16;;;;;;;;;;;12.00;84.90;;;;;;5048063;28;20037;-90
2022/09/19 05:37:42;;;;;;;;;;;12.00;85.00;;;;;;5042571;28;20052;-89
2022/09/19 05:40:10;;;;;;;;;;;12.00;85.00;;;;;;5050236;28;19976;-89
2022/09/19 05:42:40;;;;;;;;;;;12.10;84.90;;;;;;5049504;28;19952;-90
2022/09/19 05:45:06;;;;;;;;;;;12.10;84.90;;;;;;5042328;28;20000;-90
2022/09/19 05:47:31;;;;;;;;;;;12.10;85.20;;;;;;5047343;28;19955;-90
2022/09/19 05:49:57;;;;;;;;;;;11.90;85.30;;;;;;5037523;28;19960;-89
2022/09/19 05:55:20;;;;;;;;;;;11.80;86.40;;;;;;5026226;28;19978;-89
2022/09/19 05:57:50;;;;;;;;;;;11.80;86.60;;;;;;5043942;28;20048;-90
2022/09/19 06:00:15;;;;;;;;;;;11.70;87.20;;;;;;5051786;28;20061;-89
2022/09/19 06:02:41;;;;;;;;;;;11.80;87.30;;;;;;5048050;28;20469;-91
2022/09/19 06:05:06;;;;;;;;;;;11.90;86.70;;;;;;5038106;28;20047;-89
2022/09/19 06:07:32;;;;;;;;;;;12.00;86.40;;;;;;5037557;28;20042;-89
2022/09/19 06:09:58;;;;;;;;;;;12.30;85.40;;;;;;5038974;28;19952;-89
2022/09/19 06:12:23;;;;;;;;;;;12.40;84.80;;;;;;5043186;28;19980;-90
2022/09/19 06:14:49;;;;;;;;;;;12.50;84.30;;;;;;5039903;28;19981;-89
2022/09/19 06:17:16;;;;;;;;;;;12.60;83.90;;;;;;5041288;28;19953;-90
2022/09/19 06:19:41;;;;;;;;;;;12.70;84.00;;;;;;5049432;28;19968;-91
2022/09/19 06:22:07;;;;;;;;;;;12.60;84.20;;;;;;5044156;28;19999;-90
2022/09/19 06:24:33;;;;;;;;;;;12.60;84.60;;;;;;5049393;28;19948;-90
2022/09/19 06:26:58;;;;;;;;;;;12.70;84.90;;;;;;5045677;28;19992;-90
2022/09/19 06:29:24;;;;;;;;;;;12.80;84.70;;;;;;5048599;28;20375;-90
2022/09/19 06:31:49;;;;;;;;;;;12.80;84.70;;;;;;5046582;28;20419;-90
2022/09/19 06:34:15;;;;;;;;;;;12.90;85.00;;;;;;5040618;28;19963;-90
2022/09/19 06:36:44;;;;;;;;;;;12.90;85.00;;;;;;5053693;28;20036;-89
2022/09/19 06:39:09;;;;;;;;;;;13.00;84.20;;;;;;5032489;22;19975;-89
2022/09/19 06:41:38;;;;;;;;;;;13.10;83.60;;;;;;5002875;28;21500;-89
2022/09/19 06:44:04;;;;;;;;;;;13.20;83.40;;;;;;5000519;28;20426;-90
2022/09/19 06:46:30;;;;;;;;;;;13.30;83.50;;;;;;5002104;28;20039;-89
2022/09/19 06:48:55;;;;;;;;;;;13.40;83.10;;;;;;5009385;28;19962;-90
2022/09/19 06:51:21;;;;;;;;;;;13.50;82.60;;;;;;5004741;28;20442;-89
2022/09/19 06:53:47;;;;;;;;;;;13.70;82.50;;;;;;5013569;28;19959;-90
2022/09/19 06:56:13;;;;;;;;;;;13.80;82.80;;;;;;5023953;28;19947;-90
2022/09/19 06:58:38;;;;;;;;;;;13.90;83.00;;;;;;4995413;28;21364;-90
2022/09/19 07:01:04;;;;;;;;;;;14.00;82.80;;;;;;5001658;28;19953;-90
2022/09/19 07:03:29;;;;;;;;;;;14.10;82.70;;;;;;5022786;28;20394;-89
2022/09/19 07:05:56;;;;;;;;;;;14.20;82.90;;;;;;4998083;28;20395;-90
2022/09/19 07:08:22;;;;;;;;;;;14.30;82.90;;;;;;5023969;28;19955;-90
2022/09/19 07:10:47;;;;;;;;;;;14.40;82.50;;;;;;5000450;28;19938;-90
2022/09/19 07:13:14;;;;;;;;;;;14.50;82.50;;;;;;5041939;28;19946;-89
2022/09/19 07:15:40;;;;;;;;;;;14.70;82.30;;;;;;4997716;28;19978;-90
2022/09/19 07:18:10;;;;;;;;;;;14.80;81.70;;;;;;5005525;28;20003;-89
2022/09/19 07:20:36;;;;;;;;;;;14.80;79.90;;;;;;5000038;28;19978;-90
2022/09/19 07:23:06;;;;;;;;;;;14.90;78.40;;;;;;4990380;28;19949;-91
2022/09/19 07:25:32;;;;;;;;;;;15.00;78.20;;;;;;5004429;28;19949;-90
2022/09/19 07:28:03;;;;;;;;;;;15.10;78.50;;;;;;5038817;28;19971;-90
2022/09/19 07:30:29;;;;;;;;;;;15.20;78.30;;;;;;4994713;28;19947;-89
2022/09/19 07:32:58;;;;;;;;;;;15.30;77.70;;;;;;5018085;28;20034;-90
2022/09/19 07:35:27;;;;;;;;;;;15.40;77.60;;;;;;4996496;28;19954;-89
2022/09/19 07:37:53;;;;;;;;;;;15.50;77.20;;;;;;4995999;28;19941;-89
2022/09/19 07:40:19;;;;;;;;;;;15.80;78.70;;;;;;5004619;28;19963;-89
2022/09/19 07:42:44;;;;;;;;;;;15.90;77.10;;;;;;4993256;28;19952;-90
2022/09/19 07:45:10;;;;;;;;;;;16.10;75.60;;;;;;5062588;28;19949;-89
2022/09/19 07:47:41;;;;;;;;;;;16.30;73.20;;;;;;5031891;28;19983;-89
2022/09/19 07:50:07;;;;;;;;;;;16.40;74.00;;;;;;5009164;28;19993;-90
2022/09/19 07:52:32;;;;;;;;;;;16.50;71.50;;;;;;5004134;27;19971;-89
2022/09/19 07:54:58;;;;;;;;;;;16.60;72.30;;;;;;5058060;28;20434;-90
2022/09/19 07:57:24;;;;;;;;;;;16.60;73.00;;;;;;5005560;28;19953;-91
2022/09/19 07:59:49;;;;;;;;;;;16.70;71.40;;;;;;5030827;28;20022;-90
2022/09/19 08:02:15;;;;;;;;;;;16.80;66.00;;;;;;5017175;28;19979;-89
2022/09/19 08:04:40;;;;;;;;;;;16.90;67.30;;;;;;5007020;28;20028;-89
2022/09/19 08:07:06;;;;;;;;;;;17.00;67.40;;;;;;5014712;28;19993;-90
2022/09/19 08:09:33;;;;;;;;;;;17.20;67.60;;;;;;4991809;28;20040;-89
2022/09/19 08:12:05;;;;;;;;;;;17.20;67.70;;;;;;5005194;28;20069;-90
2022/09/19 08:14:30;;;;;;;;;;;17.30;67.60;;;;;;5032012;28;19984;-91
2022/09/19 08:16:56;;;;;;;;;;;17.30;67.30;;;;;;5007840;28;19941;-90
2022/09/19 08:19:21;;;;;;;;;;;17.30;66.30;;;;;;5001359;28;19961;-90
2022/09/19 08:21:48;;;;;;;;;;;17.40;66.50;;;;;;4997587;28;19983;-90
2022/09/19 08:24:14;;;;;;;;;;;17.40;66.50;;;;;;5001637;28;19953;-90
2022/09/19 08:26:41;;;;;;;;;;;17.50;66.70;;;;;;4997683;28;20040;-91
2022/09/19 08:29:07;;;;;;;;;;;17.50;67.60;;;;;;5016236;28;19949;-90
2022/09/19 08:31:32;;;;;;;;;;;17.60;67.30;;;;;;4997474;28;19942;-90
2022/09/19 08:33:58;;;;;;;;;;;17.70;67.10;;;;;;4997849;28;19954;-90
2022/09/19 08:36:23;;;;;;;;;;;17.80;66.60;;;;;;5000247;28;19973;-90
2022/09/19 08:38:49;;;;;;;;;;;17.90;65.10;;;;;;4999127;28;19979;-91
2022/09/19 08:41:15;;;;;;;;;;;17.90;65.50;;;;;;4999271;28;19956;-91
2022/09/19 08:43:43;;;;;;;;;;;17.90;64.80;;;;;;5010114;28;19942;-89
2022/09/19 08:46:08;;;;;;;;;;;17.90;65.00;;;;;;4995317;28;19949;-90
2022/09/19 08:48:54;;;;;;;;;;;18.00;64.90;;;;;;5002681;28;20004;-91
2022/09/19 08:51:26;;;;;;;;;;;18.10;64.90;;;;;;5001098;28;19956;-89
2022/09/19 08:53:57;;;;;;;;;;;18.20;64.00;;;;;;5020625;28;20042;-91
2022/09/19 08:56:23;;;;;;;;;;;18.30;65.50;;;;;;4994786;28;19991;-90
2022/09/19 08:58:51;;;;;;;;;;;18.40;64.70;;;;;;5056355;28;19946;-90
2022/09/19 09:01:18;;;;;;;;;;;18.50;65.30;;;;;;4995352;28;19948;-89
2022/09/19 09:04:07;;;;;;;;;;;18.60;64.40;;;;;;4997322;28;20404;-90
2022/09/19 09:06:44;;;;;;;;;;;18.60;64.30;;;;;;5011156;28;20020;-91
2022/09/19 09:09:13;;;;;;;;;;;18.70;65.80;;;;;;5008880;28;19978;-90
2022/09/19 09:11:38;;;;;;;;;;;18.80;62.80;;;;;;5014262;28;20409;-90
2022/09/19 09:14:14;;;;;;;;;;;18.80;62.60;;;;;;5010976;28;19986;-90
2022/09/19 09:16:46;;;;;;;;;;;18.90;63.50;;;;;;5004904;28;19943;-90
2022/09/19 09:19:17;;;;;;;;;;;19.00;64.50;;;;;;5066638;28;20063;-90
2022/09/19 09:22:01;;;;;;;;;;;19.20;66.20;;;;;;5013319;28;20037;-90
2022/09/19 09:24:47;;;;;;;;;;;19.40;64.40;;;;;;4991590;28;19945;-90
2022/09/19 09:27:19;;;;;;;;;;;19.40;64.30;;;;;;4994161;28;19950;-89
2022/09/19 09:29:52;;;;;;;;;;;19.40;61.30;;;;;;4993325;28;20310;-91
2022/09/19 09:32:40;;;;;;;;;;;19.40;61.40;;;;;;4999605;28;20450;-90
2022/09/19 09:35:29;;;;;;;;;;;19.50;62.50;;;;;;4994854;28;19952;-91
2022/09/19 09:38:13;;;;;;;;;;;19.70;62.40;;;;;;5017912;28;20036;-89
2022/09/19 09:43:43;;;;;;;;;;;19.70;59.10;;;;;;5046506;28;19947;-91
2022/09/19 09:46:11;;;;;;;;;;;19.80;58.30;;;;;;4998728;28;20485;-91
2022/09/19 09:48:38;;;;;;;;;;;19.80;58.20;;;;;;5023119;28;19949;-90
2022/09/19 09:51:10;;;;;;;;;;;19.90;58.10;;;;;;5006643;28;20075;-90
2022/09/19 09:53:35;;;;;;;;;;;20.00;58.90;;;;;;4993794;28;19938;-89
2022/09/19 09:56:21;;;;;;;;;;;20.20;55.30;;;;;;5000903;28;19955;-91
2022/09/19 09:58:50;;;;;;;;;;;20.30;57.50;;;;;;4993572;28;19994;-90
2022/09/19 10:04:12;;;;;;;;;;;20.60;55.30;;;;;;4997018;28;20384;-89
2022/09/19 10:06:42;;;;;;;;;;;20.70;56.20;;;;;;4999013;28;19963;-90
2022/09/19 10:09:16;;;;;;;;;;;20.80;59.20;;;;;;5003767;28;19943;-90
2022/09/19 10:11:51;;;;;;;;;;;20.80;59.70;;;;;;4993110;28;19954;-90
2022/09/19 10:14:28;;;;;;;;;;;21.00;58.50;;;;;;4999884;28;19943;-90
2022/09/19 10:17:01;;;;;;;;;;;21.20;58.20;;;;;;4997772;28;19944;-90
2022/09/19 10:19:38;;;;;;;;;;;21.30;58.70;;;;;;4993911;28;20016;-90
2022/09/19 10:22:04;;;;;;;;;;;21.40;53.20;;;;;;4998805;28;20000;-91
2022/09/19 10:24:40;;;;;;;;;;;21.50;52.40;;;;;;5010222;28;20461;-90
2022/09/19 10:27:11;;;;;;;;;;;21.50;49.90;;;;;;5008897;28;19952;-90
2022/09/19 10:29:48;;;;;;;;;;;21.60;48.40;;;;;;5010422;28;19976;-91
2022/09/19 10:32:19;;;;;;;;;;;21.70;46.70;;;;;;4998822;28;19951;-90
2022/09/19 10:34:45;;;;;;;;;;;21.80;50.30;;;;;;4991096;28;19941;-90
2022/09/19 10:37:14;;;;;;;;;;;21.70;53.90;;;;;;4994616;28;19953;-90
2022/09/19 10:39:44;;;;;;;;;;;21.70;55.80;;;;;;4991032;28;19972;-90
2022/09/19 10:42:19;;;;;;;;;;;21.80;53.60;;;;;;4991364;28;19951;-90
2022/09/19 10:44:50;;;;;;;;;;;21.80;54.10;;;;;;5001571;28;19940;-90
2022/09/19 10:47:16;;;;;;;;;;;21.90;56.90;;;;;;5002747;28;19951;-90
2022/09/19 10:49:46;;;;;;;;;;;22.20;53.40;;;;;;4990725;28;19948;-90
2022/09/19 10:52:20;;;;;;;;;;;22.30;56.00;;;;;;5006646;28;19972;-90
2022/09/19 10:54:46;;;;;;;;;;;22.40;53.40;;;;;;4995778;28;19945;-91
2022/09/19 10:57:26;;;;;;;;;;;22.50;52.30;;;;;;5005221;28;19951;-90
2022/09/19 10:59:54;;;;;;;;;;;22.60;51.40;;;;;;4997879;28;20430;-90
2022/09/19 11:02:24;;;;;;;;;;;22.70;53.10;;;;;;4992016;28;19969;-90
2022/09/19 11:05:00;;;;;;;;;;;22.80;51.50;;;;;;5004962;28;19943;-90
2022/09/19 11:07:29;;;;;;;;;;;22.90;50.40;;;;;;4991963;28;20090;-91
2022/09/19 11:09:59;;;;;;;;;;;23.00;50.40;;;;;;5002492;28;19952;-90
2022/09/19 11:12:30;;;;;;;;;;;22.90;52.00;;;;;;4993680;28;19956;-90
2022/09/19 11:14:56;;;;;;;;;;;23.10;48.60;;;;;;5004905;28;19944;-90
2022/09/19 11:17:29;;;;;;;;;;;23.30;46.90;;;;;;4998610;28;19969;-90
2022/09/19 11:20:00;;;;;;;;;;;23.50;51.80;;;;;;5011086;28;19960;-90
2022/09/19 11:22:55;;;;;;;;;;;23.70;49.30;;;;;;5008170;28;19952;-90
2022/09/19 11:25:21;;;;;;;;;;;23.70;44.60;;;;;;5017150;28;19956;-90
2022/09/19 11:27:47;;;;;;;;;;;23.80;47.00;;;;;;5008338;28;19950;-90
2022/09/19 11:30:18;;;;;;;;;;;23.70;48.00;;;;;;5001784;28;19955;-91
2022/09/19 11:32:56;;;;;;;;;;;23.50;45.50;;;;;;5001950;28;19943;-89
2022/09/19 11:35:28;;;;;;;;;;;23.60;43.90;;;;;;4998339;28;19944;-91
2022/09/19 11:38:02;;;;;;;;;;;23.80;42.40;;;;;;4996910;28;19944;-91
2022/09/19 11:40:51;;;;;;;;;;;24.10;40.20;;;;;;4993192;28;20195;-92
2022/09/19 11:43:38;;;;;;;;;;;24.30;38.00;;;;;;5014051;28;19969;-90
2022/09/19 11:46:30;;;;;;;;;;;24.70;38.60;;;;;;5002605;28;19958;-90
2022/09/19 11:49:13;;;;;;;;;;;24.60;41.10;;;;;;5000354;28;19944;-91
2022/09/19 11:51:52;;;;;;;;;;;24.30;42.70;;;;;;5018717;28;19969;-91
2022/09/19 11:54:24;;;;;;;;;;;24.50;40.90;;;;;;5013870;28;20312;-90
2022/09/19 11:56:55;;;;;;;;;;;24.80;42.10;;;;;;5005557;28;19955;-91
2022/09/19 11:59:27;;;;;;;;;;;24.90;38.90;;;;;;5042127;28;19971;-91
2022/09/19 12:02:09;;;;;;;;;;;24.80;43.00;;;;;;5005608;28;19948;-92
2022/09/19 12:04:34;;;;;;;;;;;25.00;41.30;;;;;;5031733;28;19960;-92
2022/09/19 12:07:10;;;;;;;;;;;25.10;38.80;;;;;;5016189;28;20397;-90
2022/09/19 12:09:40;;;;;;;;;;;25.40;39.00;;;;;;5013367;28;19960;-91
2022/09/19 12:12:11;;;;;;;;;;;25.60;38.20;;;;;;5011909;28;19946;-90
2022/09/19 12:14:58;;;;;;;;;;;25.50;38.80;;;;;;5017625;28;19995;-91
2022/09/19 12:17:28;;;;;;;;;;;25.50;39.10;;;;;;5008416;28;20030;-91
2022/09/19 12:20:00;;;;;;;;;;;25.80;36.70;;;;;;5031962;28;19966;-91
2022/09/19 12:22:28;;;;;;;;;;;26.50;37.10;;;;;;5018645;28;20358;-92
2022/09/19 12:24:58;;;;;;;;;;;27.00;35.20;;;;;;5002027;28;19952;-92
2022/09/19 12:27:37;;;;;;;;;;;27.40;32.60;;;;;;4999967;28;20033;-91
2022/09/19 12:30:05;;;;;;;;;;;27.50;33.30;;;;;;4991755;28;19961;-93
2022/09/19 12:32:38;;;;;;;;;;;27.50;31.20;;;;;;5002883;28;20371;-92
2022/09/19 12:35:15;;;;;;;;;;;27.60;30.40;;;;;;5001673;28;19953;-92
2022/09/19 12:38:04;;;;;;;;;;;28.70;29.50;;;;;;4997564;28;20626;-92
2022/09/19 12:40:48;;;;;;;;;;;30.20;28.90;;;;;;4991930;28;19982;-92
2022/09/19 12:43:38;;;;;;;;;;;31.20;29.50;;;;;;4995216;28;19950;-92
2022/09/19 12:46:23;;;;;;;;;;;31.40;25.60;;;;;;4998683;28;19951;-93
2022/09/19 12:48:52;;;;;;;;;;;31.80;25.80;;;;;;5008192;28;19948;-93
2022/09/19 12:51:24;;;;;;;;;;;31.80;27.20;;;;;;4997642;28;20324;-92
2022/09/19 12:53:57;;;;;;;;;;;32.30;24.10;;;;;;4993554;28;19951;-92
2022/09/19 12:56:23;;;;;;;;;;;32.80;26.40;;;;;;4997651;28;20458;-92
2022/09/19 12:59:15;;;;;;;;;;;33.10;25.00;;;;;;4996708;28;19992;-93
2022/09/19 13:01:45;;;;;;;;;;;32.90;24.60;;;;;;5000479;28;19973;-91
2022/09/19 13:04:13;;;;;;;;;;;32.20;26.70;;;;;;4994970;28;19949;-91
2022/09/19 13:06:41;;;;;;;;;;;32.10;24.60;;;;;;5036981;28;19935;-92
2022/09/19 13:09:14;;;;;;;;;;;31.30;23.30;;;;;;4992871;28;19953;-94
2022/09/19 13:11:41;;;;;;;;;;;31.00;25.10;;;;;;4993048;28;19937;-94
2022/09/19 13:14:19;;;;;;;;;;;30.90;24.60;;;;;;4993046;28;19946;-94
2022/09/19 13:25:17;;;;;;;;;;;32.60;23.40;;;;;;4992803;28;19953;-94
2022/09/19 13:27:44;;;;;;;;;;;32.50;24.50;;;;;;4992832;28;20381;-94
2022/09/19 13:30:48;;;;;;;;;;;32.50;24.10;;;;;;4992986;28;19944;-94
2022/09/19 13:33:37;;;;;;;;;;;32.20;22.40;;;;;;4990799;28;19940;-95
2022/09/19 13:36:10;;;;;;;;;;;32.20;23.80;;;;;;4987508;28;19950;-94
2022/09/19 13:38:40;;;;;;;;;;;32.20;22.70;;;;;;4992767;28;20430;-94
2022/09/19 13:41:07;;;;;;;;;;;32.50;24.60;;;;;;4991487;28;19960;-94
2022/09/19 13:43:48;;;;;;;;;;;32.70;24.50;;;;;;4992503;28;19939;-93
2022/09/19 13:46:26;;;;;;;;;;;32.80;22.70;;;;;;4991482;28;19981;-93
2022/09/19 13:48:58;;;;;;;;;;;32.70;22.40;;;;;;4991908;28;20306;-93
2022/09/19 13:51:39;;;;;;;;;;;32.70;24.10;;;;;;4991784;28;19958;-94
2022/09/19 13:54:37;;;;;;;;;;;32.30;22.00;;;;;;4992396;28;20299;-94
2022/09/19 13:57:05;;;;;;;;;;;31.80;23.90;;;;;;4991870;28;19948;-93
2022/09/19 13:59:34;;;;;;;;;;;32.30;23.90;;;;;;4992273;28;20402;-92
2022/09/19 14:02:19;;;;;;;;;;;32.70;23.40;;;;;;5000728;28;19952;-92
2022/09/19 14:04:54;;;;;;;;;;;32.20;23.60;;;;;;4991892;28;20008;-94
2022/09/19 14:07:27;;;;;;;;;;;32.10;22.80;;;;;;5000436;28;19944;-94
2022/09/19 14:09:54;;;;;;;;;;;31.90;22.70;;;;;;4994973;28;19950;-94
2022/09/19 14:12:46;;;;;;;;;;;32.40;21.00;;;;;;5004127;28;19949;-95
2022/09/19 14:15:31;;;;;;;;;;;32.00;21.40;;;;;;5048749;28;20042;-93
2022/09/19 14:18:02;;;;;;;;;;;31.90;22.90;;;;;;5053708;28;19966;-94
2022/09/19 14:21:03;;;;;;;;;;;31.70;21.50;;;;;;4992673;28;20048;-92
2022/09/19 14:23:32;;;;;;;;;;;31.90;19.70;;;;;;4999550;28;19939;-94
2022/09/19 14:26:10;;;;;;;;;;;33.10;18.70;;;;;;4997117;28;19971;-91
2022/09/19 14:28:54;;;;;;;;;;;33.20;20.10;;;;;;5023161;28;19946;-92
2022/09/19 14:31:26;;;;;;;;;;;32.70;20.90;;;;;;5004555;28;19943;-91
2022/09/19 14:33:52;;;;;;;;;;;32.40;21.30;;;;;;4999220;28;19972;-93
2022/09/19 14:36:23;;;;;;;;;;;32.20;20.40;;;;;;5000621;28;19950;-92
2022/09/19 14:38:52;;;;;;;;;;;31.90;21.50;;;;;;4988845;23;19988;-93
2022/09/19 14:41:24;;;;;;;;;;;31.90;22.20;;;;;;4963424;28;20010;-92
2022/09/19 14:43:55;;;;;;;;;;;32.00;23.00;;;;;;4965723;28;20427;-91
2022/09/19 14:46:26;;;;;;;;;;;32.40;24.40;;;;;;4967877;28;19966;-92
2022/09/19 14:48:53;;;;;;;;;;;32.70;21.70;;;;;;4963544;28;19941;-92
2022/09/19 14:51:37;;;;;;;;;;;32.80;20.90;;;;;;4964998;28;19964;-92
2022/09/19 14:54:24;;;;;;;;;;;32.40;21.30;;;;;;4969499;28;19958;-93
2022/09/19 14:56:56;;;;;;;;;;;31.80;21.60;;;;;;4964067;28;19952;-92
2022/09/19 14:59:23;;;;;;;;;;;31.80;22.70;;;;;;4965194;28;20018;-92